Time;durP1;ratioP1;P1;durP2;ratioP2;P2;SDS_P1;SDS_P2;PMS_P1;PMS_P2;Temp;Humidity;BMP_temperature;BMP_pressure;BME280_temperature;BME280_humidity;BME280_pressure;Samples;Min_cycle;Max_cycle;Signal;HPM_P1;HPM_P2
2023/10/17 00:02:25;;;;;;;3.30;1.60;;;;;;;7.04;58.56;100150.56;4461673;32;33917;-81
2023/10/17 00:04:54;;;;;;;2.33;1.67;;;;;;;6.99;58.62;100152.25;4461548;32;33477;-79
2023/10/17 00:07:23;;;;;;;2.65;1.83;;;;;;;6.94;58.84;100141.03;4462010;32;34378;-80
2023/10/17 00:09:57;;;;;;;1.65;1.48;;;;;;;6.80;59.16;100144.31;4466594;32;33574;-80
2023/10/17 00:12:33;;;;;;;1.23;1.12;;;;;;;7.00;58.85;100144.50;4470699;32;33056;-82
2023/10/17 00:15:16;;;;;;;4.45;1.85;;;;;;;6.79;59.47;100141.72;4467825;32;34288;-79
2023/10/17 00:17:46;;;;;;;2.40;1.70;;;;;;;6.79;59.91;100139.13;4464239;32;33428;-81
2023/10/17 00:20:17;;;;;;;2.03;1.33;;;;;;;6.85;59.38;100139.22;4466616;32;102141;-79
2023/10/17 00:22:46;;;;;;;1.55;1.33;;;;;;;6.73;59.76;100133.94;4467016;32;33085;-80
2023/10/17 00:25:17;;;;;;;1.58;1.33;;;;;;;6.93;59.36;100136.69;4462549;32;34412;-81
2023/10/17 00:27:46;;;;;;;1.27;1.17;;;;;;;6.89;59.42;100129.81;4461398;32;33663;-82
2023/10/17 00:30:18;;;;;;;1.67;1.50;;;;;;;6.82;59.78;100134.88;4461179;32;33432;-79
2023/10/17 00:32:47;;;;;;;1.90;1.55;;;;;;;6.84;59.48;100135.78;4470797;32;33175;-80
2023/10/17 00:35:18;;;;;;;3.53;1.77;;;;;;;6.95;59.18;100133.28;4474870;32;33849;-80
2023/10/17 00:37:51;;;;;;;;;;;;;;;6.67;60.03;100129.59;4461499;32;34449;-79
2023/10/17 00:43:04;;;;;;;3.47;1.90;;;;;;;6.81;59.80;100120.28;4462056;32;32374;-80
2023/10/17 00:45:33;;;;;;;3.53;2.17;;;;;;;6.83;59.35;100121.13;4473972;32;34481;-80
2023/10/17 00:48:08;;;;;;;1.75;1.40;;;;;;;6.81;59.44;100119.38;4466819;32;35331;-81
2023/10/17 00:50:38;;;;;;;1.75;1.23;;;;;;;6.77;59.50;100118.50;4470738;32;33767;-80
2023/10/17 00:53:08;;;;;;;2.08;1.42;;;;;;;6.86;59.47;100127.16;4472719;32;34413;-81
2023/10/17 00:55:40;;;;;;;1.95;1.40;;;;;;;6.84;59.08;100114.28;4462654;32;36230;-79
2023/10/17 00:58:09;;;;;;;2.17;1.40;;;;;;;6.88;58.85;100113.44;4476375;32;35229;-80
2023/10/17 01:00:39;;;;;;;3.35;1.95;;;;;;;6.84;59.02;100112.56;4467776;32;33974;-79
2023/10/17 01:03:10;;;;;;;2.50;1.80;;;;;;;6.81;59.17;100112.53;4459969;32;33076;-80
2023/10/17 01:05:48;;;;;;;1.25;1.15;;;;;;;6.70;59.45;100105.56;4464272;32;33379;-81
2023/10/17 01:08:17;;;;;;;3.45;1.90;;;;;;;6.75;58.88;100101.31;4471607;32;34751;-79
2023/10/17 01:10:48;;;;;;;1.80;1.58;;;;;;;6.70;59.32;100101.25;4473187;32;34218;-79
2023/10/17 01:13:17;;;;;;;1.60;1.50;;;;;;;6.80;59.17;100104.78;4473291;32;33012;-81
2023/10/17 01:15:47;;;;;;;1.30;1.20;;;;;;;6.92;58.61;100101.44;4465697;32;33591;-80
2023/10/17 01:18:16;;;;;;;1.20;1.17;;;;;;;6.75;59.37;100097.00;4473925;32;33695;-79
2023/10/17 01:20:45;;;;;;;1.55;1.40;;;;;;;6.67;59.77;100098.66;4469305;32;34609;-82
2023/10/17 01:23:14;;;;;;;1.20;1.10;;;;;;;6.79;59.33;100095.31;4476754;32;33222;-79
2023/10/17 01:25:44;;;;;;;2.30;1.40;;;;;;;6.92;58.90;100091.13;4463517;32;32084;-81
2023/10/17 01:28:13;;;;;;;1.37;1.27;;;;;;;6.89;58.90;100088.53;4473647;32;34530;-79
2023/10/17 01:30:42;;;;;;;2.10;1.60;;;;;;;6.81;59.14;100096.19;4476168;32;33284;-81
2023/10/17 01:33:12;;;;;;;1.60;1.20;;;;;;;6.81;59.01;100091.91;4479658;32;33251;-80
2023/10/17 01:35:44;;;;;;;1.42;1.33;;;;;;;6.74;59.54;100095.28;4472818;32;33586;-81
2023/10/17 01:38:13;;;;;;;2.25;1.55;;;;;;;6.68;59.69;100094.37;4474791;32;34097;-81
2023/10/17 01:40:43;;;;;;;1.65;1.52;;;;;;;6.69;59.86;100093.50;4460775;32;34559;-80
2023/10/17 01:43:12;;;;;;;1.33;1.23;;;;;;;6.73;59.72;100098.69;4476554;32;32689;-79
2023/10/17 01:45:42;;;;;;;4.97;1.58;;;;;;;6.65;59.79;100095.19;4471980;32;32483;-81
2023/10/17 01:48:13;;;;;;;1.90;1.80;;;;;;;6.54;60.01;100092.50;4470508;32;34341;-80
2023/10/17 01:50:44;;;;;;;1.27;1.17;;;;;;;6.68;60.02;100095.22;4460615;32;33297;-80
2023/10/17 01:53:13;;;;;;;1.30;1.12;;;;;;;6.67;59.93;100097.78;4460270;32;32544;-81
2023/10/17 01:55:48;;;;;;;1.20;1.10;;;;;;;6.68;59.47;100099.53;4467780;32;32811;-81
2023/10/17 01:58:18;;;;;;;1.00;1.00;;;;;;;6.96;58.99;100100.59;4459592;32;33496;-79
2023/10/17 02:00:47;;;;;;;3.53;1.40;;;;;;;6.84;58.96;100109.13;4463851;32;34572;-81
2023/10/17 02:03:16;;;;;;;2.25;1.40;;;;;;;6.75;59.32;100101.31;4459507;32;32880;-79
2023/10/17 02:05:45;;;;;;;4.93;1.40;;;;;;;6.81;59.43;100106.50;4467736;32;33538;-80
2023/10/17 02:08:14;;;;;;;1.12;1.10;;;;;;;6.82;59.53;100108.25;4463372;32;34339;-81
2023/10/17 02:10:47;;;;;;;1.70;1.10;;;;;;;6.69;60.00;100107.25;4461008;32;33440;-82
2023/10/17 02:13:17;;;;;;;1.45;1.30;;;;;;;6.73;59.95;100106.44;4470352;32;33572;-80
2023/10/17 02:15:50;;;;;;;1.40;1.30;;;;;;;6.47;60.50;100108.75;4463475;32;33709;-80
2023/10/17 02:18:19;;;;;;;1.33;1.20;;;;;;;6.82;59.43;100103.94;4465208;32;34007;-80
2023/10/17 02:20:51;;;;;;;1.33;1.23;;;;;;;6.76;59.79;100109.03;4465194;32;33809;-82
2023/10/17 02:23:25;;;;;;;1.40;1.30;;;;;;;6.79;59.76;100106.50;4473442;32;33920;-81
2023/10/17 02:26:00;;;;;;;1.37;1.27;;;;;;;6.89;59.42;100104.00;4459609;32;33634;-81
2023/10/17 02:28:44;;;;;;;1.30;1.20;;;;;;;6.97;58.82;100105.78;4476751;32;34552;-80
2023/10/17 02:31:15;;;;;;;4.10;1.50;;;;;;;6.87;58.97;100110.88;4466765;32;33603;-79
2023/10/17 02:33:43;;;;;;;1.30;1.20;;;;;;;6.86;59.46;100109.13;4469104;32;34323;-81
2023/10/17 02:36:13;;;;;;;1.00;1.00;;;;;;;6.86;59.29;100114.28;4461732;32;33334;-80
2023/10/17 02:38:43;;;;;;;2.87;1.25;;;;;;;6.88;59.21;100117.75;4461362;32;33693;-81
2023/10/17 02:41:18;;;;;;;1.17;1.15;;;;;;;6.76;59.03;100119.34;4465264;32;34574;-79
2023/10/17 02:43:50;;;;;;;1.23;1.12;;;;;;;6.83;59.01;100115.97;4459994;32;33876;-80
2023/10/17 02:46:21;;;;;;;1.70;1.40;;;;;;;6.76;59.13;100119.34;4460176;32;35109;-80
2023/10/17 02:48:51;;;;;;;1.15;1.10;;;;;;;6.65;59.90;100115.81;4466884;32;33747;-80
2023/10/17 02:51:33;;;;;;;1.10;1.10;;;;;;;6.81;59.54;100109.97;4465531;32;33099;-81
2023/10/17 02:54:06;;;;;;;1.87;1.27;;;;;;;6.72;59.80;100112.47;4465304;32;33180;-82
2023/10/17 02:56:38;;;;;;;1.30;1.20;;;;;;;6.77;59.66;100109.91;4460262;32;33853;-81
2023/10/17 02:59:09;;;;;;;1.62;1.37;;;;;;;6.73;59.60;100114.16;4461759;32;33639;-80
2023/10/17 03:01:39;;;;;;;1.67;1.30;;;;;;;6.57;60.01;100112.28;4466121;32;34027;-81
2023/10/17 03:04:13;;;;;;;1.40;1.30;;;;;;;6.85;59.06;100116.00;4465686;32;32468;-81
2023/10/17 03:06:44;;;;;;;2.25;1.48;;;;;;;6.62;59.53;100115.81;4473035;32;33439;-81
2023/10/17 03:09:32;;;;;;;1.45;1.30;;;;;;;6.66;59.67;100119.25;4461788;32;34644;-79
2023/10/17 03:12:10;;;;;;;1.70;1.35;;;;;;;6.65;59.79;100114.97;4464834;32;33794;-80
2023/10/17 03:15:18;;;;;;;1.40;1.30;;;;;;;6.51;60.78;100122.56;4469943;32;32574;-81
2023/10/17 03:17:39;;;;;;;1.33;1.23;;;;;;;6.76;60.30;100128.81;4461502;32;33767;-81
2023/10/17 03:20:11;;;;;;;1.45;1.35;;;;;;;6.05;62.95;100130.62;4461073;32;34626;-80
2023/10/17 03:22:41;;;;;;;2.05;1.30;;;;;;;6.51;60.67;100127.72;4469246;32;33895;-80
2023/10/17 03:25:20;;;;;;;1.20;1.10;;;;;;;6.59;60.55;100129.50;4466029;32;32815;-80
2023/10/17 03:27:49;;;;;;;1.62;1.30;;;;;;;6.57;60.31;100131.22;4473455;32;33559;-82
2023/10/17 03:30:20;;;;;;;1.30;1.20;;;;;;;6.63;59.30;100133.00;4468572;32;33751;-80
2023/10/17 03:33:03;;;;;;;1.30;1.20;;;;;;;6.33;60.64;100125.78;4472797;32;33995;-79
2023/10/17 03:35:36;;;;;;;3.37;1.40;;;;;;;6.57;60.02;100123.50;4474151;32;33382;-79
2023/10/17 03:38:08;;;;;;;2.90;1.33;;;;;;;6.46;59.87;100126.81;4475014;32;33934;-80
2023/10/17 03:40:41;;;;;;;1.50;1.20;;;;;;;6.58;59.33;100124.34;4475787;32;34923;-79
2023/10/17 03:43:12;;;;;;;2.42;1.40;;;;;;;6.34;60.42;100125.81;4472741;32;33528;-80
2023/10/17 03:45:51;;;;;;;1.43;1.33;;;;;;;6.47;59.89;100131.09;4474003;32;33570;-80
2023/10/17 03:48:21;;;;;;;1.67;1.30;;;;;;;6.53;59.03;100131.19;4482749;32;33539;-79
2023/10/17 03:50:59;;;;;;;1.55;1.45;;;;;;;6.20;59.67;100122.22;4467561;32;35005;-81
2023/10/17 03:53:29;;;;;;;2.22;1.20;;;;;;;6.17;60.55;100125.63;4461449;32;33414;-81
2023/10/17 03:56:00;;;;;;;1.70;1.50;;;;;;;6.44;59.91;100137.09;4467462;32;33289;-79
2023/10/17 03:58:43;;;;;;;;;;;;;;;6.24;60.34;100130.84;4480949;32;33896;-82
2023/10/17 04:01:14;;;;;;;2.28;1.73;;;;;;;6.27;60.10;100129.16;4469848;32;34097;-81
2023/10/17 04:03:43;;;;;;;3.20;1.73;;;;;;;6.16;60.22;100125.59;4464876;32;34216;-81
2023/10/17 04:06:21;;;;;;;1.67;1.40;;;;;;;6.37;59.65;100127.56;4476416;32;33551;-80
2023/10/17 04:08:56;;;;;;;2.08;1.58;;;;;;;6.13;60.24;100118.69;4470775;32;33301;-81
2023/10/17 04:11:36;;;;;;;1.37;1.27;;;;;;;6.06;60.38;100118.63;4453395;32;34417;-81
2023/10/17 04:14:10;;;;;;;1.37;1.27;;;;;;;6.11;60.70;100116.94;4477672;32;34816;-79
2023/10/17 04:16:40;;;;;;;2.40;1.92;;;;;;;6.11;60.95;100117.84;4471267;32;33109;-79
2023/10/17 04:19:16;;;;;;;2.83;1.65;;;;;;;6.26;60.69;100108.53;4471161;32;33570;-79
2023/10/17 04:21:51;;;;;;;1.25;1.20;;;;;;;6.22;60.67;100107.66;4462622;32;33604;-79
2023/10/17 04:24:34;;;;;;;1.30;1.20;;;;;;;6.29;60.63;100119.75;4461762;32;36601;-81
2023/10/17 04:27:19;;;;;;;8.32;1.45;;;;;;;6.13;60.97;100116.13;4471548;32;32227;-79
2023/10/17 04:29:51;;;;;;;2.15;1.95;;;;;;;6.23;60.65;100122.25;4474213;32;33751;-81
2023/10/17 04:32:20;;;;;;;1.70;1.50;;;;;;;6.10;61.05;100118.66;4462541;32;33756;-79
2023/10/17 04:34:50;;;;;;;1.33;1.23;;;;;;;6.08;60.89;100116.91;4460750;32;33714;-80
2023/10/17 04:37:31;;;;;;;4.82;1.37;;;;;;;5.50;63.62;100123.00;4465850;32;33809;-80
2023/10/17 04:42:56;;;;;;;2.15;1.80;;;;;;;6.14;61.11;100122.16;4466653;32;35249;-79
2023/10/17 04:45:28;;;;;;;1.85;1.60;;;;;;;6.00;61.05;100123.72;4462653;32;34232;-79
2023/10/17 04:50:45;;;;;;;1.52;1.37;;;;;;;5.95;61.43;100128.78;4461687;31;35006;-79
2023/10/17 04:53:25;;;;;;;1.37;1.27;;;;;;;5.65;61.94;100124.91;4469968;32;33860;-81
2023/10/17 04:56:11;;;;;;;1.60;1.40;;;;;;;5.97;61.05;100130.53;4473085;32;33876;-81
2023/10/17 04:58:48;;;;;;;1.40;1.30;;;;;;;5.87;61.14;100127.78;4462941;32;34159;-79
2023/10/17 05:01:39;;;;;;;1.90;1.73;;;;;;;6.09;60.64;100139.25;4468561;32;34530;-79
2023/10/17 05:04:19;;;;;;;1.67;1.55;;;;;;;6.04;60.68;100140.91;4461130;32;33538;-80
2023/10/17 06:17:23;;;;;;;5.18;2.00;;;;;;;6.10;61.38;100192.50;4459932;32;34241;-80
2023/10/17 06:19:52;;;;;;;2.05;1.70;;;;;;;6.31;61.21;100189.34;4465566;32;32873;-79
2023/10/17 06:23:23;;;;;;;3.65;1.95;;;;;;;6.23;61.81;100191.81;4459753;32;34705;-79
2023/10/17 06:28:25;;;;;;;7.75;2.45;;;;;;;6.60;59.77;100200.84;4460219;32;33807;-81
2023/10/17 06:33:42;;;;;;;2.05;1.83;;;;;;;6.29;60.97;100194.47;4467462;32;34132;-78
2023/10/17 06:36:13;;;;;;;2.05;1.87;;;;;;;6.26;61.31;100204.75;4467965;32;33681;-80
2023/10/17 06:38:48;;;;;;;4.40;2.20;;;;;;;6.41;61.44;100198.91;4475669;32;32543;-79
2023/10/17 06:41:28;;;;;;;2.95;1.70;;;;;;;6.72;60.84;100199.25;4474205;32;32840;-80
2023/10/17 06:43:58;;;;;;;2.15;1.80;;;;;;;6.80;60.37;100198.47;4470765;32;34553;-79
2023/10/17 06:46:40;;;;;;;2.42;1.60;;;;;;;7.01;59.73;100196.97;4466370;31;33485;-79
2023/10/17 06:49:09;;;;;;;2.15;1.58;;;;;;;7.16;59.42;100204.84;4469768;32;34130;-79
2023/10/17 06:51:39;;;;;;;2.22;1.85;;;;;;;7.20;59.13;100203.13;4471887;32;34433;-80
2023/10/17 06:54:12;;;;;;;3.28;1.85;;;;;;;7.46;58.69;100200.78;4469067;32;34428;-79
2023/10/17 06:56:44;;;;;;;3.03;2.08;;;;;;;7.48;59.15;100202.50;4465664;32;34686;-79
2023/10/17 06:59:33;;;;;;;2.15;1.85;;;;;;;7.50;59.42;100202.53;4466163;32;32667;-81
2023/10/17 07:02:16;;;;;;;3.47;1.73;;;;;;;7.59;59.19;100201.75;4470176;32;33387;-80
2023/10/17 07:04:45;;;;;;;1.67;1.55;;;;;;;7.71;59.04;100199.25;4473536;32;33619;-79
2023/10/17 07:07:16;;;;;;;1.90;1.62;;;;;;;7.65;59.26;100197.47;4472368;32;33708;-79
2023/10/17 07:09:52;;;;;;;1.60;1.40;;;;;;;7.73;59.41;100196.66;4477486;32;34695;-81
2023/10/17 07:12:22;;;;;;;3.97;2.12;;;;;;;7.72;59.60;100198.38;4473174;32;34708;-80
2023/10/17 07:14:51;;;;;;;2.58;2.00;;;;;;;7.26;60.66;100203.22;4463946;32;33132;-80
2023/10/17 07:17:27;;;;;;;2.47;1.87;;;;;;;7.75;59.57;100202.72;4477171;32;34802;-81
2023/10/17 07:19:59;;;;;;;4.25;2.28;;;;;;;7.85;58.63;100201.91;4477563;32;33502;-80
2023/10/17 07:22:35;;;;;;;2.72;1.65;;;;;;;7.73;59.16;100194.94;4465425;32;33567;-80
2023/10/17 07:25:16;;;;;;;3.15;2.00;;;;;;;7.57;60.03;100203.47;4469615;31;34030;-81
2023/10/17 07:27:47;;;;;;;3.00;1.98;;;;;;;8.04;58.07;100190.81;4461546;32;33819;-82
2023/10/17 07:30:25;;;;;;;3.42;2.17;;;;;;;8.05;57.64;100196.87;4478734;32;32607;-81
2023/10/17 07:32:56;;;;;;;2.75;2.12;;;;;;;8.02;57.84;100200.31;4477466;32;33778;-80
2023/10/17 07:35:25;;;;;;;2.15;1.60;;;;;;;8.11;57.83;100199.47;4466756;32;34612;-80
2023/10/17 07:37:55;;;;;;;1.77;1.65;;;;;;;8.16;57.37;100199.50;4463783;32;34580;-80
2023/10/17 07:40:33;;;;;;;2.15;1.60;;;;;;;8.23;56.95;100196.94;4471984;32;33998;-81
2023/10/17 07:43:07;;;;;;;3.97;2.05;;;;;;;8.05;58.33;100208.06;4473952;32;33522;-81
2023/10/17 07:45:40;;;;;;;3.87;2.37;;;;;;;8.44;57.45;100200.50;4476295;32;34512;-81
2023/10/17 07:48:24;;;;;;;2.92;2.00;;;;;;;8.41;57.28;100203.06;4472411;32;34364;-80
2023/10/17 07:50:54;;;;;;;1.60;1.50;;;;;;;8.76;56.21;100204.03;4475921;32;33215;-80
2023/10/17 07:53:23;;;;;;;7.30;2.08;;;;;;;8.74;56.63;100204.91;4477554;32;33155;-79
2023/10/17 07:56:03;;;;;;;3.95;2.03;;;;;;;8.72;56.76;100204.03;4482120;32;34354;-82
2023/10/17 07:58:43;;;;;;;2.65;1.70;;;;;;;8.83;56.47;100199.75;4468918;32;34042;-79
2023/10/17 08:01:16;;;;;;;3.40;2.20;;;;;;;8.80;56.94;100204.06;4467138;32;32904;-80
2023/10/17 08:03:57;;;;;;;3.92;1.85;;;;;;;8.97;56.96;100202.38;4469973;32;33497;-81
2023/10/17 08:06:30;;;;;;;3.90;2.45;;;;;;;9.16;55.72;100203.28;4465370;32;33996;-81
2023/10/17 08:09:00;;;;;;;3.85;2.10;;;;;;;9.15;55.92;100201.53;4471342;32;33618;-79
2023/10/17 08:11:31;;;;;;;3.28;2.28;;;;;;;9.07;56.41;100203.25;4475617;32;33320;-80
2023/10/17 08:14:09;;;;;;;4.30;2.17;;;;;;;9.30;55.56;100206.72;4468232;32;33938;-80
2023/10/17 08:16:40;;;;;;;5.97;2.25;;;;;;;9.44;54.97;100204.13;4466775;32;33858;-80
2023/10/17 08:19:15;;;;;;;;;;;;;;;9.27;55.82;100204.13;4469645;32;33419;-81
2023/10/17 08:24:44;;;;;;;2.58;1.70;;;;;;;9.68;53.92;100207.56;4460698;32;33430;-81
2023/10/17 08:27:17;;;;;;;2.85;1.90;;;;;;;9.76;52.98;100200.63;4468511;32;34087;-81
2023/10/17 08:29:49;;;;;;;8.30;2.05;;;;;;;9.74;52.58;100198.06;4463584;32;34279;-79
2023/10/17 08:35:10;;;;;;;2.15;1.58;;;;;;;9.97;50.79;100194.53;4461533;32;33503;-80
2023/10/17 08:37:43;;;;;;;1.83;1.45;;;;;;;10.14;50.75;100192.75;4466611;32;34645;-82
2023/10/17 08:40:32;;;;;;;2.08;1.87;;;;;;;10.02;51.29;100196.25;4464167;32;33796;-81
2023/10/17 08:43:02;;;;;;;1.98;1.50;;;;;;;9.65;51.44;100197.22;4469156;32;33918;-79
2023/10/17 08:45:37;;;;;;;1.25;1.15;;;;;;;10.13;50.58;100190.19;4469129;32;34263;-79
2023/10/17 08:48:08;;;;;;;4.78;1.42;;;;;;;10.09;50.90;100197.09;4466825;32;33660;-81
2023/10/17 08:50:39;;;;;;;2.28;1.60;;;;;;;10.29;49.43;100202.25;4477254;32;33303;-81
2023/10/17 08:53:13;;;;;;;2.35;1.58;;;;;;;10.56;48.89;100193.50;4469595;32;33915;-81
2023/10/17 08:55:43;;;;;;;3.67;1.77;;;;;;;10.40;48.57;100187.50;4467994;32;33897;-82
2023/10/17 08:58:12;;;;;;;4.12;1.90;;;;;;;10.40;48.76;100184.06;4467626;32;33901;-80
2023/10/17 09:00:55;;;;;;;1.30;1.20;;;;;;;10.31;49.02;100189.28;4474581;32;34545;-80
2023/10/17 09:03:28;;;;;;;2.80;1.30;;;;;;;10.79;46.98;100184.72;4468737;32;32912;-80
2023/10/17 09:08:50;;;;;;;3.58;1.73;;;;;;;10.75;46.80;100185.59;4466588;32;34494;-79
2023/10/17 09:11:29;;;;;;;1.98;1.15;;;;;;;11.06;45.88;100189.72;4475712;32;33471;-80
2023/10/17 09:14:17;;;;;;;2.70;1.70;;;;;;;11.54;44.87;100191.94;4469737;32;32917;-81
2023/10/17 09:16:51;;;;;;;2.25;1.50;;;;;;;11.36;45.61;100184.31;4466058;32;33702;-82
2023/10/17 09:19:25;;;;;;;2.70;1.60;;;;;;;11.24;46.38;100186.13;4479463;32;33793;-81
2023/10/17 09:21:54;;;;;;;1.70;1.20;;;;;;;11.48;45.10;100190.25;4476393;32;34356;-81
2023/10/17 09:24:32;;;;;;;1.90;1.55;;;;;;;11.74;44.47;100184.81;4477557;32;34087;-80
2023/10/17 09:27:06;;;;;;;4.12;1.42;;;;;;;11.74;45.14;100181.34;4476546;32;34343;-79
2023/10/17 09:29:51;;;;;;;2.10;1.50;;;;;;;11.71;45.43;100178.78;4480829;32;33144;-81
2023/10/17 09:32:37;;;;;;;1.90;1.33;;;;;;;11.82;45.34;100181.28;4479066;32;34261;-80
2023/10/17 09:35:13;;;;;;;2.65;1.50;;;;;;;11.87;45.49;100182.97;4474649;32;34507;-82
2023/10/17 09:37:44;;;;;;;1.73;1.30;;;;;;;12.02;45.04;100181.94;4474616;32;33494;-82
2023/10/17 09:40:18;;;;;;;1.75;1.37;;;;;;;12.20;44.42;100187.81;4474888;32;34317;-80
2023/10/17 09:42:47;;;;;;;3.20;1.92;;;;;;;12.43;44.52;100177.13;4474991;32;33985;-81
2023/10/17 09:45:17;;;;;;;1.95;1.33;;;;;;;12.18;44.33;100182.66;4475106;32;33270;-80
2023/10/17 09:48:05;;;;;;;4.18;1.50;;;;;;;11.84;45.32;100180.38;4460737;32;33017;-81
2023/10/17 09:50:38;;;;;;;2.97;1.62;;;;;;;12.12;44.08;100162.75;4460491;32;34033;-82
2023/10/17 09:53:14;;;;;;;8.32;1.58;;;;;;;12.34;43.86;100165.09;4462456;32;34307;-81
2023/10/17 09:55:47;;;;;;;1.87;1.35;;;;;;;12.44;44.17;100150.22;4461098;32;33096;-80
2023/10/17 09:58:18;;;;;;;2.35;1.80;;;;;;;12.76;43.12;100155.00;4466031;32;34242;-80
2023/10/17 10:00:51;;;;;;;1.42;1.10;;;;;;;12.73;43.47;100160.22;4460381;32;34058;-82
2023/10/17 10:03:24;;;;;;;6.43;3.00;;;;;;;13.06;42.99;100148.44;4461207;32;33578;-81
2023/10/17 10:05:54;;;;;;;3.22;1.50;;;;;;;13.14;42.24;100146.56;4461703;32;33527;-80
2023/10/17 10:08:32;;;;;;;5.83;1.77;;;;;;;13.12;41.93;100140.53;4472566;32;33613;-80
2023/10/17 10:11:02;;;;;;;2.50;1.40;;;;;;;13.35;41.35;100141.91;4474103;32;32808;-80
2023/10/17 10:13:32;;;;;;;3.87;1.40;;;;;;;13.29;41.54;100140.28;4466150;32;34339;-81
2023/10/17 10:16:02;;;;;;;1.67;1.12;;;;;;;13.50;41.73;100138.19;4466774;32;33914;-80
2023/10/17 10:18:58;;;;;;;3.20;1.50;;;;;;;13.44;40.12;100131.34;4473439;32;36018;-81
2023/10/17 10:21:54;;;;;;;1.92;1.08;;;;;;;13.36;40.92;100131.47;4459590;32;34493;-80
2023/10/17 10:24:27;;;;;;;0.88;0.88;;;;;;;13.63;40.67;100126.66;4467920;32;34046;-82
2023/10/17 10:27:26;;;;;;;1.37;1.05;;;;;;;13.73;40.61;100122.13;4477680;32;33235;-82
2023/10/17 10:30:17;;;;;;;4.12;1.40;;;;;;;13.51;40.41;100122.53;4410465;32;33452;-82
2023/10/17 10:32:50;;;;;;;2.60;1.48;;;;;;;13.76;38.67;100119.44;4408455;32;33509;-81
2023/10/17 10:35:21;;;;;;;2.42;1.20;;;;;;;13.68;38.43;100116.13;4411028;32;33280;-81
2023/10/17 10:37:53;;;;;;;1.40;1.15;;;;;;;13.45;38.93;100113.03;4411000;32;32988;-81
2023/10/17 10:40:26;;;;;;;2.22;1.20;;;;;;;13.09;39.06;100116.25;4413164;32;35301;-81
2023/10/17 10:42:58;;;;;;;0.90;0.90;;;;;;;13.55;38.17;100110.28;4400153;32;33540;-81
2023/10/17 10:45:31;;;;;;;2.45;1.30;;;;;;;13.85;38.35;100104.47;4401145;32;33707;-81
2023/10/17 10:48:04;;;;;;;0.95;0.93;;;;;;;13.71;39.09;100103.03;4410559;32;33487;-81
2023/10/17 10:50:35;;;;;;;1.35;1.23;;;;;;;13.93;37.90;100098.25;4410992;32;34430;-82
2023/10/17 10:53:19;;;;;;;1.60;1.20;;;;;;;13.76;37.18;100094.22;4414877;32;33560;-80
2023/10/17 10:55:52;;;;;;;4.37;1.60;;;;;;;13.68;38.02;100083.09;4400827;32;33608;-80
2023/10/17 10:58:21;;;;;;;1.10;1.00;;;;;;;13.55;37.35;100087.66;4409844;32;32370;-81
2023/10/17 11:00:50;;;;;;;1.50;1.25;;;;;;;13.72;37.93;100082.13;4410000;32;34255;-80
2023/10/17 11:03:19;;;;;;;1.45;1.10;;;;;;;13.68;37.24;100077.87;4409477;32;34884;-81
2023/10/17 11:05:53;;;;;;;2.08;1.45;;;;;;;13.99;37.26;100083.34;4437417;32;34457;-81
2023/10/17 11:08:23;;;;;;;1.45;1.27;;;;;;;14.01;37.29;100076.34;4465480;32;33779;-81
2023/10/17 11:10:52;;;;;;;1.33;1.05;;;;;;;14.15;37.38;100070.81;4463762;32;33556;-82
2023/10/17 11:13:22;;;;;;;2.03;1.20;;;;;;;13.97;37.66;100064.25;4460611;32;34207;-81
2023/10/17 11:15:51;;;;;;;2.90;1.20;;;;;;;14.12;38.15;100059.59;4473696;32;34148;-81
2023/10/17 11:18:21;;;;;;;3.42;1.20;;;;;;;14.50;37.86;100058.72;4468407;32;33931;-82
2023/10/17 11:20:56;;;;;;;1.10;1.00;;;;;;;14.19;36.86;100063.78;4467257;32;34492;-81
2023/10/17 11:23:27;;;;;;;0.80;0.80;;;;;;;14.19;37.23;100064.63;4466291;32;33610;-80
2023/10/17 11:25:59;;;;;;;2.65;1.60;;;;;;;14.42;37.46;100055.44;4471167;32;32880;-82
2023/10/17 11:28:42;;;;;;;0.73;0.73;;;;;;;14.49;36.69;100062.22;4481674;32;32944;-82
2023/10/17 11:31:13;;;;;;;3.30;1.00;;;;;;;14.41;36.77;100056.34;4481548;32;33760;-80
2023/10/17 11:33:47;;;;;;;3.75;1.37;;;;;;;14.31;38.13;100055.69;4469320;32;34098;-81
2023/10/17 11:36:20;;;;;;;2.05;1.45;;;;;;;14.27;38.12;100054.03;4472728;32;34259;-80
2023/10/17 11:38:54;;;;;;;4.05;1.45;;;;;;;14.48;38.86;100048.31;4466448;32;33060;-82
2023/10/17 11:41:39;;;;;;;2.10;1.15;;;;;;;14.61;37.80;100043.69;4477875;32;33394;-81
2023/10/17 11:44:09;;;;;;;1.27;1.17;;;;;;;14.51;37.69;100037.78;4473667;32;33613;-80
2023/10/17 11:46:38;;;;;;;2.37;1.00;;;;;;;14.59;37.11;100023.72;4466438;32;34167;-80
2023/10/17 11:49:21;;;;;;;1.73;1.02;;;;;;;14.79;37.57;100028.50;4462561;32;33669;-81
2023/10/17 11:51:58;;;;;;;3.33;1.23;;;;;;;14.58;37.71;100029.84;4465347;32;34320;-81
2023/10/17 11:54:27;;;;;;;1.75;1.25;;;;;;;14.70;37.27;100042.62;4469531;32;33685;-81
2023/10/17 11:57:10;;;;;;;4.15;1.70;;;;;;;14.89;36.89;100040.41;4473081;32;32935;-81
2023/10/17 11:59:38;;;;;;;1.83;1.12;;;;;;;14.82;37.05;100037.09;4467298;32;33749;-80
2023/10/17 12:02:11;;;;;;;2.95;1.75;;;;;;;14.80;38.09;100031.03;4470169;32;34327;-81
2023/10/17 12:04:40;;;;;;;1.55;0.85;;;;;;;14.82;38.04;100028.41;4472024;32;34537;-81
2023/10/17 12:07:11;;;;;;;3.15;1.30;;;;;;;14.99;37.88;100027.97;4477952;32;33870;-80
2023/10/17 12:09:40;;;;;;;1.10;0.85;;;;;;;15.11;37.06;100033.72;4465126;32;33255;-80
2023/10/17 12:12:08;;;;;;;0.98;0.88;;;;;;;14.90;36.69;100027.28;4467287;32;33431;-81
2023/10/17 12:14:37;;;;;;;1.20;1.10;;;;;;;14.84;36.77;100031.84;4472543;32;34025;-80
2023/10/17 12:17:08;;;;;;;2.33;1.20;;;;;;;14.94;36.37;100017.63;4467864;32;34556;-82
2023/10/17 12:19:40;;;;;;;1.77;1.10;;;;;;;14.94;36.71;100015.88;4473004;32;33689;-81
2023/10/17 12:22:10;;;;;;;4.25;1.25;;;;;;;14.96;36.69;100012.38;4468571;32;33126;-80
2023/10/17 12:24:39;;;;;;;1.62;1.00;;;;;;;14.96;36.62;100012.38;4466716;32;34650;-81
2023/10/17 12:27:12;;;;;;;1.50;0.93;;;;;;;15.08;36.74;100009.44;4468875;32;34943;-82
2023/10/17 12:29:41;;;;;;;2.67;1.33;;;;;;;14.85;36.78;100007.41;4473447;32;33932;-81
2023/10/17 12:32:10;;;;;;;1.65;1.10;;;;;;;15.16;37.93;99999.63;4473211;32;33589;-80
2023/10/17 12:34:40;;;;;;;1.83;1.17;;;;;;;15.12;36.66;99998.84;4476303;32;34286;-80
2023/10/17 12:37:11;;;;;;;2.85;1.40;;;;;;;15.14;36.44;100002.28;4471903;32;33676;-80
2023/10/17 12:39:42;;;;;;;1.85;1.00;;;;;;;15.34;36.41;100001.75;4466512;32;32409;-81
2023/10/17 12:42:12;;;;;;;2.12;1.20;;;;;;;15.09;36.23;99992.84;4473376;32;33615;-81
2023/10/17 12:44:41;;;;;;;1.40;1.10;;;;;;;14.90;36.47;99988.09;4460692;32;34073;-81
2023/10/17 12:47:09;;;;;;;2.10;1.30;;;;;;;14.82;36.55;99984.84;4469184;32;34226;-80
2023/10/17 12:49:39;;;;;;;1.80;1.02;;;;;;;15.14;36.02;99980.53;4474405;32;33508;-80
2023/10/17 12:52:08;;;;;;;2.42;1.20;;;;;;;15.14;37.14;99983.13;4480568;32;34697;-81
2023/10/17 12:54:38;;;;;;;2.85;1.45;;;;;;;14.78;36.38;99971.91;4474894;32;33760;-80
2023/10/17 12:57:10;;;;;;;2.47;1.20;;;;;;;14.91;36.85;99979.38;4475185;32;34408;-80
2023/10/17 12:59:40;;;;;;;2.10;1.15;;;;;;;14.93;37.29;99975.00;4475714;32;33957;-82
2023/10/17 13:02:10;;;;;;;1.42;1.10;;;;;;;15.12;37.77;99977.09;4468797;32;34671;-81
2023/10/17 13:04:40;;;;;;;1.73;1.12;;;;;;;15.04;38.33;99979.06;4469938;32;33802;-80
2023/10/17 13:07:11;;;;;;;1.87;1.00;;;;;;;15.20;38.05;99974.25;4463374;32;33567;-80
2023/10/17 13:09:43;;;;;;;2.33;1.20;;;;;;;15.11;38.25;99981.47;4463238;32;33361;-80
2023/10/17 13:12:14;;;;;;;2.00;1.15;;;;;;;15.25;38.92;99970.63;4461876;32;32793;-80
2023/10/17 13:14:43;;;;;;;1.10;1.00;;;;;;;15.17;38.54;99967.34;4466224;32;34507;-81
2023/10/17 13:17:13;;;;;;;0.93;0.80;;;;;;;15.25;38.42;99969.78;4472572;32;34037;-82
2023/10/17 13:19:43;;;;;;;1.42;0.98;;;;;;;15.27;38.28;99967.97;4466589;32;33096;-80
2023/10/17 13:22:17;;;;;;;1.45;1.12;;;;;;;15.29;37.91;99969.63;4470540;32;32954;-82
2023/10/17 13:24:48;;;;;;;0.80;0.80;;;;;;;15.18;37.06;99966.47;4463915;32;33653;-81
2023/10/17 13:27:17;;;;;;;3.15;1.10;;;;;;;15.21;35.87;99968.16;4466360;32;34537;-80
2023/10/17 13:29:50;;;;;;;1.02;0.93;;;;;;;15.27;36.86;99960.12;4460546;32;32598;-80
2023/10/17 13:32:19;;;;;;;1.75;1.05;;;;;;;15.31;37.06;99960.00;4465174;32;34332;-81
2023/10/17 13:34:48;;;;;;;1.52;1.02;;;;;;;15.47;35.92;99957.81;4465492;32;34733;-81